sensor_id;sensor_type;location;lat;lon;timestamp;temperature;humidity
85614;DHT22;76041;50.924;3.932;2024-03-29T00:01:24;10.30;68.10
85614;DHT22;76041;50.924;3.932;2024-03-29T00:03:50;10.40;67.80
85614;DHT22;76041;50.924;3.932;2024-03-29T00:06:17;10.40;67.80
85614;DHT22;76041;50.924;3.932;2024-03-29T00:08:43;10.40;68.10
85614;DHT22;76041;50.924;3.932;2024-03-29T00:11:09;10.50;67.80
85614;DHT22;76041;50.924;3.932;2024-03-29T00:13:35;10.50;67.90
85614;DHT22;76041;50.924;3.932;2024-03-29T00:16:01;10.50;67.90
85614;DHT22;76041;50.924;3.932;2024-03-29T00:18:27;10.50;67.60
85614;DHT22;76041;50.924;3.932;2024-03-29T00:20:53;10.50;67.60
85614;DHT22;76041;50.924;3.932;2024-03-29T00:23:18;10.40;68.30
85614;DHT22;76041;50.924;3.932;2024-03-29T00:25:44;10.40;67.60
85614;DHT22;76041;50.924;3.932;2024-03-29T00:28:10;10.30;68.10
85614;DHT22;76041;50.924;3.932;2024-03-29T00:30:36;10.40;67.50
85614;DHT22;76041;50.924;3.932;2024-03-29T00:33:02;10.40;67.80
85614;DHT22;76041;50.924;3.932;2024-03-29T00:35:28;10.50;67.10
85614;DHT22;76041;50.924;3.932;2024-03-29T00:37:54;10.50;67.20
85614;DHT22;76041;50.924;3.932;2024-03-29T00:40:20;10.60;67.00
85614;DHT22;76041;50.924;3.932;2024-03-29T00:42:46;10.60;67.10
85614;DHT22;76041;50.924;3.932;2024-03-29T00:45:12;10.60;66.60
85614;DHT22;76041;50.924;3.932;2024-03-29T00:47:38;10.60;67.10
85614;DHT22;76041;50.924;3.932;2024-03-29T00:50:04;10.60;67.20
85614;DHT22;76041;50.924;3.932;2024-03-29T00:52:30;10.60;67.10
85614;DHT22;76041;50.924;3.932;2024-03-29T00:54:56;10.70;67.30
85614;DHT22;76041;50.924;3.932;2024-03-29T00:57:22;10.60;67.10
85614;DHT22;76041;50.924;3.932;2024-03-29T00:59:48;10.50;67.30
85614;DHT22;76041;50.924;3.932;2024-03-29T01:02:14;10.60;67.50
85614;DHT22;76041;50.924;3.932;2024-03-29T01:04:41;10.40;67.50
85614;DHT22;76041;50.924;3.932;2024-03-29T01:07:07;10.60;67.10
85614;DHT22;76041;50.924;3.932;2024-03-29T01:09:33;10.50;67.40
85614;DHT22;76041;50.924;3.932;2024-03-29T01:11:59;10.50;68.00
85614;DHT22;76041;50.924;3.932;2024-03-29T01:14:25;10.40;68.20
85614;DHT22;76041;50.924;3.932;2024-03-29T01:16:51;10.50;68.40
85614;DHT22;76041;50.924;3.932;2024-03-29T01:19:18;10.50;68.30
85614;DHT22;76041;50.924;3.932;2024-03-29T01:21:45;10.40;67.60
85614;DHT22;76041;50.924;3.932;2024-03-29T01:24:10;10.60;67.20
85614;DHT22;76041;50.924;3.932;2024-03-29T01:26:36;10.50;67.40
85614;DHT22;76041;50.924;3.932;2024-03-29T01:29:02;10.50;67.80
85614;DHT22;76041;50.924;3.932;2024-03-29T01:31:28;10.70;67.10
85614;DHT22;76041;50.924;3.932;2024-03-29T01:33:54;10.60;67.40
85614;DHT22;76041;50.924;3.932;2024-03-29T01:36:23;10.40;68.00
85614;DHT22;76041;50.924;3.932;2024-03-29T01:38:49;10.50;68.50
85614;DHT22;76041;50.924;3.932;2024-03-29T01:41:17;10.60;67.90
85614;DHT22;76041;50.924;3.932;2024-03-29T01:43:44;10.60;67.20
85614;DHT22;76041;50.924;3.932;2024-03-29T01:46:10;10.40;68.40
85614;DHT22;76041;50.924;3.932;2024-03-29T01:48:36;10.30;68.10
85614;DHT22;76041;50.924;3.932;2024-03-29T01:51:03;10.20;68.30
85614;DHT22;76041;50.924;3.932;2024-03-29T01:53:29;10.20;68.40
85614;DHT22;76041;50.924;3.932;2024-03-29T01:55:56;10.20;68.90
85614;DHT22;76041;50.924;3.932;2024-03-29T01:58:23;10.10;69.80
85614;DHT22;76041;50.924;3.932;2024-03-29T02:00:57;10.30;68.90
85614;DHT22;76041;50.924;3.932;2024-03-29T02:03:23;10.30;68.70
85614;DHT22;76041;50.924;3.932;2024-03-29T02:05:50;10.40;68.50
85614;DHT22;76041;50.924;3.932;2024-03-29T02:08:16;10.30;68.40
85614;DHT22;76041;50.924;3.932;2024-03-29T02:10:44;10.20;68.80
85614;DHT22;76041;50.924;3.932;2024-03-29T02:13:11;10.30;68.70
85614;DHT22;76041;50.924;3.932;2024-03-29T02:15:38;10.20;69.30
85614;DHT22;76041;50.924;3.932;2024-03-29T02:18:04;10.10;69.30
85614;DHT22;76041;50.924;3.932;2024-03-29T02:20:31;10.00;69.80
85614;DHT22;76041;50.924;3.932;2024-03-29T02:23:10;10.00;70.30
85614;DHT22;76041;50.924;3.932;2024-03-29T02:25:36;9.90;70.50
85614;DHT22;76041;50.924;3.932;2024-03-29T02:28:03;9.80;70.60
85614;DHT22;76041;50.924;3.932;2024-03-29T02:30:30;9.70;71.50
85614;DHT22;76041;50.924;3.932;2024-03-29T02:32:59;9.70;71.40
85614;DHT22;76041;50.924;3.932;2024-03-29T02:35:26;9.80;71.90
85614;DHT22;76041;50.924;3.932;2024-03-29T02:37:52;9.70;72.10
85614;DHT22;76041;50.924;3.932;2024-03-29T02:40:19;9.70;72.00
85614;DHT22;76041;50.924;3.932;2024-03-29T02:42:48;9.70;72.20
85614;DHT22;76041;50.924;3.932;2024-03-29T02:45:15;9.70;72.00
85614;DHT22;76041;50.924;3.932;2024-03-29T02:47:42;10.00;71.70
85614;DHT22;76041;50.924;3.932;2024-03-29T02:50:10;10.00;71.90
85614;DHT22;76041;50.924;3.932;2024-03-29T02:52:36;9.90;72.20
85614;DHT22;76041;50.924;3.932;2024-03-29T02:55:02;9.70;74.40
85614;DHT22;76041;50.924;3.932;2024-03-29T02:57:29;9.70;73.90
85614;DHT22;76041;50.924;3.932;2024-03-29T02:59:55;9.60;73.90
85614;DHT22;76041;50.924;3.932;2024-03-29T03:02:20;9.60;74.20
85614;DHT22;76041;50.924;3.932;2024-03-29T03:04:46;9.70;74.30
85614;DHT22;76041;50.924;3.932;2024-03-29T03:07:12;9.70;74.60
85614;DHT22;76041;50.924;3.932;2024-03-29T03:09:56;9.60;74.90
85614;DHT22;76041;50.924;3.932;2024-03-29T03:12:41;9.50;75.30
85614;DHT22;76041;50.924;3.932;2024-03-29T03:15:07;9.40;76.50
85614;DHT22;76041;50.924;3.932;2024-03-29T03:17:33;9.40;77.50
85614;DHT22;76041;50.924;3.932;2024-03-29T03:19:59;9.30;78.10
85614;DHT22;76041;50.924;3.932;2024-03-29T03:22:25;9.30;79.10
85614;DHT22;76041;50.924;3.932;2024-03-29T03:24:51;9.20;80.00
85614;DHT22;76041;50.924;3.932;2024-03-29T03:27:18;9.20;81.10
85614;DHT22;76041;50.924;3.932;2024-03-29T03:29:44;9.50;80.50
85614;DHT22;76041;50.924;3.932;2024-03-29T03:32:09;9.30;81.20
85614;DHT22;76041;50.924;3.932;2024-03-29T03:34:35;9.10;82.50
85614;DHT22;76041;50.924;3.932;2024-03-29T03:37:03;9.30;82.70
85614;DHT22;76041;50.924;3.932;2024-03-29T03:39:29;9.40;81.80
85614;DHT22;76041;50.924;3.932;2024-03-29T03:41:55;9.20;82.10
85614;DHT22;76041;50.924;3.932;2024-03-29T03:44:21;9.40;82.50
85614;DHT22;76041;50.924;3.932;2024-03-29T03:46:53;9.30;83.20
85614;DHT22;76041;50.924;3.932;2024-03-29T03:49:19;9.60;82.10
85614;DHT22;76041;50.924;3.932;2024-03-29T03:51:45;9.60;81.30
85614;DHT22;76041;50.924;3.932;2024-03-29T03:54:10;9.60;81.40
85614;DHT22;76041;50.924;3.932;2024-03-29T03:56:36;9.60;81.60
85614;DHT22;76041;50.924;3.932;2024-03-29T03:59:02;9.60;81.90
85614;DHT22;76041;50.924;3.932;2024-03-29T04:01:28;9.80;81.00
85614;DHT22;76041;50.924;3.932;2024-03-29T04:03:54;9.80;80.90
85614;DHT22;76041;50.924;3.932;2024-03-29T04:06:20;9.90;80.60
85614;DHT22;76041;50.924;3.932;2024-03-29T04:08:46;10.20;79.60
85614;DHT22;76041;50.924;3.932;2024-03-29T04:11:12;10.20;79.40
85614;DHT22;76041;50.924;3.932;2024-03-29T04:13:38;10.20;79.50
85614;DHT22;76041;50.924;3.932;2024-03-29T04:16:06;10.10;79.70
85614;DHT22;76041;50.924;3.932;2024-03-29T04:18:33;10.20;79.30
85614;DHT22;76041;50.924;3.932;2024-03-29T04:21:00;10.10;79.20
85614;DHT22;76041;50.924;3.932;2024-03-29T04:23:26;10.00;79.30
85614;DHT22;76041;50.924;3.932;2024-03-29T04:25:56;9.90;80.60
85614;DHT22;76041;50.924;3.932;2024-03-29T04:28:22;10.00;79.50
85614;DHT22;76041;50.924;3.932;2024-03-29T04:30:56;9.80;79.70
85614;DHT22;76041;50.924;3.932;2024-03-29T04:33:22;9.70;80.70
85614;DHT22;76041;50.924;3.932;2024-03-29T04:35:58;9.90;79.70
85614;DHT22;76041;50.924;3.932;2024-03-29T04:38:26;10.00;79.80
85614;DHT22;76041;50.924;3.932;2024-03-29T04:40:55;9.80;79.80
85614;DHT22;76041;50.924;3.932;2024-03-29T04:43:26;9.50;81.40
85614;DHT22;76041;50.924;3.932;2024-03-29T04:46:12;9.30;81.80
85614;DHT22;76041;50.924;3.932;2024-03-29T04:48:39;9.20;82.40
85614;DHT22;76041;50.924;3.932;2024-03-29T04:51:05;9.20;82.70
85614;DHT22;76041;50.924;3.932;2024-03-29T04:53:31;9.20;81.90
85614;DHT22;76041;50.924;3.932;2024-03-29T04:55:58;9.20;81.80
85614;DHT22;76041;50.924;3.932;2024-03-29T04:58:27;9.00;82.80
85614;DHT22;76041;50.924;3.932;2024-03-29T05:00:54;9.40;81.70
85614;DHT22;76041;50.924;3.932;2024-03-29T05:03:21;9.00;82.00
85614;DHT22;76041;50.924;3.932;2024-03-29T05:05:52;8.80;83.80
85614;DHT22;76041;50.924;3.932;2024-03-29T05:08:19;8.80;84.30
85614;DHT22;76041;50.924;3.932;2024-03-29T05:10:46;9.10;82.80
85614;DHT22;76041;50.924;3.932;2024-03-29T05:13:13;8.90;83.60
85614;DHT22;76041;50.924;3.932;2024-03-29T05:15:39;9.10;83.10
85614;DHT22;76041;50.924;3.932;2024-03-29T05:18:05;9.20;82.20
85614;DHT22;76041;50.924;3.932;2024-03-29T05:20:31;9.00;82.80
85614;DHT22;76041;50.924;3.932;2024-03-29T05:22:58;9.00;83.50
85614;DHT22;76041;50.924;3.932;2024-03-29T05:25:24;8.90;83.80
85614;DHT22;76041;50.924;3.932;2024-03-29T05:27:50;8.80;83.80
85614;DHT22;76041;50.924;3.932;2024-03-29T05:30:17;8.90;84.40
85614;DHT22;76041;50.924;3.932;2024-03-29T05:32:43;9.10;83.50
85614;DHT22;76041;50.924;3.932;2024-03-29T05:35:09;9.10;82.80
85614;DHT22;76041;50.924;3.932;2024-03-29T05:37:36;9.30;82.40
85614;DHT22;76041;50.924;3.932;2024-03-29T05:40:02;9.50;81.50
85614;DHT22;76041;50.924;3.932;2024-03-29T05:42:33;9.20;82.30
85614;DHT22;76041;50.924;3.932;2024-03-29T05:45:00;8.90;83.50
85614;DHT22;76041;50.924;3.932;2024-03-29T05:47:26;8.80;83.90
85614;DHT22;76041;50.924;3.932;2024-03-29T05:49:53;8.80;83.80
85614;DHT22;76041;50.924;3.932;2024-03-29T05:52:19;8.90;83.30
85614;DHT22;76041;50.924;3.932;2024-03-29T05:54:46;8.60;84.20
85614;DHT22;76041;50.924;3.932;2024-03-29T05:57:12;8.60;84.90
85614;DHT22;76041;50.924;3.932;2024-03-29T05:59:38;8.50;85.00
85614;DHT22;76041;50.924;3.932;2024-03-29T06:02:05;8.50;85.50
85614;DHT22;76041;50.924;3.932;2024-03-29T06:04:31;8.70;85.10
85614;DHT22;76041;50.924;3.932;2024-03-29T06:07:05;8.60;85.30
85614;DHT22;76041;50.924;3.932;2024-03-29T06:09:31;8.70;85.20
85614;DHT22;76041;50.924;3.932;2024-03-29T06:11:59;9.00;83.60
85614;DHT22;76041;50.924;3.932;2024-03-29T06:14:25;8.90;84.20
85614;DHT22;76041;50.924;3.932;2024-03-29T06:17:09;9.10;83.90
85614;DHT22;76041;50.924;3.932;2024-03-29T06:19:54;9.10;83.80
85614;DHT22;76041;50.924;3.932;2024-03-29T06:22:24;9.30;83.20
85614;DHT22;76041;50.924;3.932;2024-03-29T06:24:51;9.10;83.40
85614;DHT22;76041;50.924;3.932;2024-03-29T06:27:18;8.80;84.70
85614;DHT22;76041;50.924;3.932;2024-03-29T06:29:46;8.60;86.00
85614;DHT22;76041;50.924;3.932;2024-03-29T06:32:12;8.70;85.50
85614;DHT22;76041;50.924;3.932;2024-03-29T06:34:38;8.60;86.20
85614;DHT22;76041;50.924;3.932;2024-03-29T06:37:04;8.90;84.60
85614;DHT22;76041;50.924;3.932;2024-03-29T06:39:30;8.80;85.30
85614;DHT22;76041;50.924;3.932;2024-03-29T06:41:56;8.80;85.50
85614;DHT22;76041;50.924;3.932;2024-03-29T06:44:22;9.00;84.40
85614;DHT22;76041;50.924;3.932;2024-03-29T06:46:48;8.80;85.10
85614;DHT22;76041;50.924;3.932;2024-03-29T06:49:14;8.80;85.40
85614;DHT22;76041;50.924;3.932;2024-03-29T06:51:40;8.80;86.40
85614;DHT22;76041;50.924;3.932;2024-03-29T06:54:06;8.90;85.80
85614;DHT22;76041;50.924;3.932;2024-03-29T06:56:32;9.10;84.70
85614;DHT22;76041;50.924;3.932;2024-03-29T06:58:58;9.20;83.90
85614;DHT22;76041;50.924;3.932;2024-03-29T07:01:24;9.30;83.90
85614;DHT22;76041;50.924;3.932;2024-03-29T07:03:50;9.50;83.50
85614;DHT22;76041;50.924;3.932;2024-03-29T07:06:16;9.60;82.70
85614;DHT22;76041;50.924;3.932;2024-03-29T07:08:42;9.60;82.50
85614;DHT22;76041;50.924;3.932;2024-03-29T07:11:08;9.50;83.10
85614;DHT22;76041;50.924;3.932;2024-03-29T07:13:35;9.70;82.20
85614;DHT22;76041;50.924;3.932;2024-03-29T07:16:01;9.50;82.50
85614;DHT22;76041;50.924;3.932;2024-03-29T07:18:27;9.30;83.40
85614;DHT22;76041;50.924;3.932;2024-03-29T07:20:54;9.50;83.00
85614;DHT22;76041;50.924;3.932;2024-03-29T07:23:20;9.60;83.10
85614;DHT22;76041;50.924;3.932;2024-03-29T07:26:00;9.80;82.50
85614;DHT22;76041;50.924;3.932;2024-03-29T07:28:27;9.70;81.80
85614;DHT22;76041;50.924;3.932;2024-03-29T07:30:53;9.40;83.50
85614;DHT22;76041;50.924;3.932;2024-03-29T07:33:20;9.50;83.60
85614;DHT22;76041;50.924;3.932;2024-03-29T07:35:49;9.70;83.20
85614;DHT22;76041;50.924;3.932;2024-03-29T07:38:15;9.80;82.50
85614;DHT22;76041;50.924;3.932;2024-03-29T07:40:43;9.70;82.50
85614;DHT22;76041;50.924;3.932;2024-03-29T07:43:09;9.80;82.30
85614;DHT22;76041;50.924;3.932;2024-03-29T07:45:35;10.00;81.50
85614;DHT22;76041;50.924;3.932;2024-03-29T07:48:01;10.20;80.70
85614;DHT22;76041;50.924;3.932;2024-03-29T07:50:27;10.50;80.70
85614;DHT22;76041;50.924;3.932;2024-03-29T07:52:53;10.60;80.40
85614;DHT22;76041;50.924;3.932;2024-03-29T07:55:19;10.70;80.10
85614;DHT22;76041;50.924;3.932;2024-03-29T07:57:45;10.70;80.30
85614;DHT22;76041;50.924;3.932;2024-03-29T08:00:12;10.70;80.40
85614;DHT22;76041;50.924;3.932;2024-03-29T08:02:38;10.90;80.20
85614;DHT22;76041;50.924;3.932;2024-03-29T08:05:05;10.90;80.20
85614;DHT22;76041;50.924;3.932;2024-03-29T08:07:34;10.70;80.80
85614;DHT22;76041;50.924;3.932;2024-03-29T08:10:00;10.50;81.30
85614;DHT22;76041;50.924;3.932;2024-03-29T08:12:26;10.40;82.30
85614;DHT22;76041;50.924;3.932;2024-03-29T08:14:52;10.40;83.00
85614;DHT22;76041;50.924;3.932;2024-03-29T08:17:17;10.80;81.10
85614;DHT22;76041;50.924;3.932;2024-03-29T08:19:43;10.60;81.60
85614;DHT22;76041;50.924;3.932;2024-03-29T08:22:10;10.70;82.20
85614;DHT22;76041;50.924;3.932;2024-03-29T08:24:39;10.70;82.50
85614;DHT22;76041;50.924;3.932;2024-03-29T08:27:04;10.70;81.70
85614;DHT22;76041;50.924;3.932;2024-03-29T08:29:30;10.60;82.80
85614;DHT22;76041;50.924;3.932;2024-03-29T08:31:56;10.50;82.50
85614;DHT22;76041;50.924;3.932;2024-03-29T08:34:22;10.60;82.60
85614;DHT22;76041;50.924;3.932;2024-03-29T08:36:48;10.60;82.10
85614;DHT22;76041;50.924;3.932;2024-03-29T08:39:14;10.60;83.00
85614;DHT22;76041;50.924;3.932;2024-03-29T08:41:40;10.60;83.60
85614;DHT22;76041;50.924;3.932;2024-03-29T08:44:07;10.80;82.80
85614;DHT22;76041;50.924;3.932;2024-03-29T08:46:33;10.70;82.60
85614;DHT22;76041;50.924;3.932;2024-03-29T08:48:59;10.80;83.40
85614;DHT22;76041;50.924;3.932;2024-03-29T08:51:25;11.00;82.30
85614;DHT22;76041;50.924;3.932;2024-03-29T08:53:50;11.00;82.70
85614;DHT22;76041;50.924;3.932;2024-03-29T08:56:16;11.20;82.50
85614;DHT22;76041;50.924;3.932;2024-03-29T08:58:42;11.10;81.20
85614;DHT22;76041;50.924;3.932;2024-03-29T09:01:08;11.00;81.70
85614;DHT22;76041;50.924;3.932;2024-03-29T09:03:34;11.20;82.60
85614;DHT22;76041;50.924;3.932;2024-03-29T09:06:00;11.20;80.90
85614;DHT22;76041;50.924;3.932;2024-03-29T09:08:26;11.20;81.70
85614;DHT22;76041;50.924;3.932;2024-03-29T09:10:52;11.20;81.10
85614;DHT22;76041;50.924;3.932;2024-03-29T09:13:17;11.20;80.80
85614;DHT22;76041;50.924;3.932;2024-03-29T09:15:44;11.20;81.00
85614;DHT22;76041;50.924;3.932;2024-03-29T09:18:10;11.10;80.60
85614;DHT22;76041;50.924;3.932;2024-03-29T09:20:43;11.20;80.00
85614;DHT22;76041;50.924;3.932;2024-03-29T09:23:09;11.30;80.30
85614;DHT22;76041;50.924;3.932;2024-03-29T09:25:39;11.40;80.50
85614;DHT22;76041;50.924;3.932;2024-03-29T09:28:05;11.50;80.60
85614;DHT22;76041;50.924;3.932;2024-03-29T09:30:32;11.50;79.40
85614;DHT22;76041;50.924;3.932;2024-03-29T09:32:59;11.50;79.70
85614;DHT22;76041;50.924;3.932;2024-03-29T09:35:24;11.60;79.20
85614;DHT22;76041;50.924;3.932;2024-03-29T09:37:50;11.60;78.90
85614;DHT22;76041;50.924;3.932;2024-03-29T09:40:16;11.50;79.10
85614;DHT22;76041;50.924;3.932;2024-03-29T09:42:44;11.60;78.30
85614;DHT22;76041;50.924;3.932;2024-03-29T09:45:11;11.70;77.60
85614;DHT22;76041;50.924;3.932;2024-03-29T09:47:37;11.80;78.60
85614;DHT22;76041;50.924;3.932;2024-03-29T09:50:06;11.80;78.50
85614;DHT22;76041;50.924;3.932;2024-03-29T09:52:33;11.90;78.10
85614;DHT22;76041;50.924;3.932;2024-03-29T09:55:03;12.00;78.30
85614;DHT22;76041;50.924;3.932;2024-03-29T09:57:30;12.00;78.10
85614;DHT22;76041;50.924;3.932;2024-03-29T09:59:56;12.10;77.40
85614;DHT22;76041;50.924;3.932;2024-03-29T10:02:27;12.00;77.20
85614;DHT22;76041;50.924;3.932;2024-03-29T10:04:55;12.10;77.60
85614;DHT22;76041;50.924;3.932;2024-03-29T10:07:23;12.20;77.50
85614;DHT22;76041;50.924;3.932;2024-03-29T10:09:50;12.30;77.00
85614;DHT22;76041;50.924;3.932;2024-03-29T10:12:17;12.40;77.20
85614;DHT22;76041;50.924;3.932;2024-03-29T10:14:47;12.50;76.10
85614;DHT22;76041;50.924;3.932;2024-03-29T10:17:20;12.50;74.20
85614;DHT22;76041;50.924;3.932;2024-03-29T10:19:46;12.50;75.60
85614;DHT22;76041;50.924;3.932;2024-03-29T10:22:13;12.50;75.30
85614;DHT22;76041;50.924;3.932;2024-03-29T10:24:39;12.60;75.00
85614;DHT22;76041;50.924;3.932;2024-03-29T10:27:05;12.80;75.90
85614;DHT22;76041;50.924;3.932;2024-03-29T10:29:31;12.90;74.80
85614;DHT22;76041;50.924;3.932;2024-03-29T10:31:57;12.90;75.40
85614;DHT22;76041;50.924;3.932;2024-03-29T10:34:26;12.90;74.90
85614;DHT22;76041;50.924;3.932;2024-03-29T10:36:53;12.90;75.10
85614;DHT22;76041;50.924;3.932;2024-03-29T10:39:19;13.00;75.40
85614;DHT22;76041;50.924;3.932;2024-03-29T10:41:47;13.00;74.60
85614;DHT22;76041;50.924;3.932;2024-03-29T10:44:13;12.90;75.50
85614;DHT22;76041;50.924;3.932;2024-03-29T10:46:40;12.90;75.30
85614;DHT22;76041;50.924;3.932;2024-03-29T10:49:10;13.20;74.50
85614;DHT22;76041;50.924;3.932;2024-03-29T10:51:41;13.30;74.70
85614;DHT22;76041;50.924;3.932;2024-03-29T10:54:13;13.40;73.10
85614;DHT22;76041;50.924;3.932;2024-03-29T10:56:40;13.40;72.80
85614;DHT22;76041;50.924;3.932;2024-03-29T11:02:00;13.50;73.80
85614;DHT22;76041;50.924;3.932;2024-03-29T11:04:34;13.50;73.00
85614;DHT22;76041;50.924;3.932;2024-03-29T11:07:06;13.40;73.40
85614;DHT22;76041;50.924;3.932;2024-03-29T11:09:34;13.60;72.50
85614;DHT22;76041;50.924;3.932;2024-03-29T11:12:01;13.70;72.60
85614;DHT22;76041;50.924;3.932;2024-03-29T11:14:38;13.60;72.50
85614;DHT22;76041;50.924;3.932;2024-03-29T11:17:06;13.50;73.20
85614;DHT22;76041;50.924;3.932;2024-03-29T11:19:33;13.60;72.60
85614;DHT22;76041;50.924;3.932;2024-03-29T11:21:59;13.60;72.00
85614;DHT22;76041;50.924;3.932;2024-03-29T11:24:26;13.70;71.70
85614;DHT22;76041;50.924;3.932;2024-03-29T11:26:54;13.70;71.00
85614;DHT22;76041;50.924;3.932;2024-03-29T11:29:23;13.70;72.20
85614;DHT22;76041;50.924;3.932;2024-03-29T11:31:57;13.70;72.40
85614;DHT22;76041;50.924;3.932;2024-03-29T11:34:24;13.80;72.10
85614;DHT22;76041;50.924;3.932;2024-03-29T11:36:51;13.80;71.50
85614;DHT22;76041;50.924;3.932;2024-03-29T11:39:23;14.00;70.10
85614;DHT22;76041;50.924;3.932;2024-03-29T11:41:50;14.00;71.20
85614;DHT22;76041;50.924;3.932;2024-03-29T11:44:16;14.00;70.50
85614;DHT22;76041;50.924;3.932;2024-03-29T11:46:46;14.00;71.90
85614;DHT22;76041;50.924;3.932;2024-03-29T11:49:13;14.20;71.20
85614;DHT22;76041;50.924;3.932;2024-03-29T11:51:41;14.50;70.20
85614;DHT22;76041;50.924;3.932;2024-03-29T11:54:07;14.50;71.40
85614;DHT22;76041;50.924;3.932;2024-03-29T11:56:33;14.60;69.10
85614;DHT22;76041;50.924;3.932;2024-03-29T11:58:59;14.60;69.80
85614;DHT22;76041;50.924;3.932;2024-03-29T12:01:27;14.60;70.00
85614;DHT22;76041;50.924;3.932;2024-03-29T12:03:55;14.80;69.00
85614;DHT22;76041;50.924;3.932;2024-03-29T12:06:21;14.90;68.10
85614;DHT22;76041;50.924;3.932;2024-03-29T12:08:48;14.90;67.70
85614;DHT22;76041;50.924;3.932;2024-03-29T12:11:14;14.80;67.80
85614;DHT22;76041;50.924;3.932;2024-03-29T12:13:41;15.00;67.50
85614;DHT22;76041;50.924;3.932;2024-03-29T12:16:07;14.90;66.50
85614;DHT22;76041;50.924;3.932;2024-03-29T12:18:34;14.90;66.40
85614;DHT22;76041;50.924;3.932;2024-03-29T12:21:02;14.90;66.90
85614;DHT22;76041;50.924;3.932;2024-03-29T12:23:29;14.90;66.90
85614;DHT22;76041;50.924;3.932;2024-03-29T12:25:56;14.90;67.00
85614;DHT22;76041;50.924;3.932;2024-03-29T12:28:24;15.10;65.90
85614;DHT22;76041;50.924;3.932;2024-03-29T12:30:50;15.10;65.70
85614;DHT22;76041;50.924;3.932;2024-03-29T12:33:20;15.20;65.00
85614;DHT22;76041;50.924;3.932;2024-03-29T12:35:50;15.30;65.50
85614;DHT22;76041;50.924;3.932;2024-03-29T12:38:19;15.10;66.30
85614;DHT22;76041;50.924;3.932;2024-03-29T12:40:47;15.00;67.20
85614;DHT22;76041;50.924;3.932;2024-03-29T12:43:15;15.10;67.20
85614;DHT22;76041;50.924;3.932;2024-03-29T12:45:43;15.20;66.20
85614;DHT22;76041;50.924;3.932;2024-03-29T12:48:14;15.10;66.10
85614;DHT22;76041;50.924;3.932;2024-03-29T12:50:42;15.20;66.50
85614;DHT22;76041;50.924;3.932;2024-03-29T12:53:10;15.10;67.00
85614;DHT22;76041;50.924;3.932;2024-03-29T12:55:39;15.00;66.90
85614;DHT22;76041;50.924;3.932;2024-03-29T12:58:08;15.20;66.20
85614;DHT22;76041;50.924;3.932;2024-03-29T13:00:37;15.50;67.50
85614;DHT22;76041;50.924;3.932;2024-03-29T13:03:04;15.90;65.10
85614;DHT22;76041;50.924;3.932;2024-03-29T13:05:31;15.60;63.40
85614;DHT22;76041;50.924;3.932;2024-03-29T13:08:01;15.40;63.70
85614;DHT22;76041;50.924;3.932;2024-03-29T13:10:29;15.40;65.40
85614;DHT22;76041;50.924;3.932;2024-03-29T13:12:55;15.10;64.90
85614;DHT22;76041;50.924;3.932;2024-03-29T13:15:26;15.20;65.80
85614;DHT22;76041;50.924;3.932;2024-03-29T13:17:54;15.30;66.40
85614;DHT22;76041;50.924;3.932;2024-03-29T13:20:21;15.10;67.10
85614;DHT22;76041;50.924;3.932;2024-03-29T13:22:48;15.00;67.70
85614;DHT22;76041;50.924;3.932;2024-03-29T13:25:19;15.10;67.70
85614;DHT22;76041;50.924;3.932;2024-03-29T13:27:51;15.10;67.20
85614;DHT22;76041;50.924;3.932;2024-03-29T13:30:22;14.80;67.50
85614;DHT22;76041;50.924;3.932;2024-03-29T13:32:49;14.70;69.30
85614;DHT22;76041;50.924;3.932;2024-03-29T13:35:15;14.70;68.90
85614;DHT22;76041;50.924;3.932;2024-03-29T13:37:45;14.80;67.80
85614;DHT22;76041;50.924;3.932;2024-03-29T13:40:14;14.80;67.10
85614;DHT22;76041;50.924;3.932;2024-03-29T13:42:41;14.70;68.50
85614;DHT22;76041;50.924;3.932;2024-03-29T13:45:08;14.90;67.70
85614;DHT22;76041;50.924;3.932;2024-03-29T13:47:41;14.90;67.70
85614;DHT22;76041;50.924;3.932;2024-03-29T13:50:08;14.80;67.00
85614;DHT22;76041;50.924;3.932;2024-03-29T13:52:35;14.80;66.40
85614;DHT22;76041;50.924;3.932;2024-03-29T13:55:01;14.90;67.70
85614;DHT22;76041;50.924;3.932;2024-03-29T13:57:29;14.90;67.90
85614;DHT22;76041;50.924;3.932;2024-03-29T13:59:56;15.10;67.50
85614;DHT22;76041;50.924;3.932;2024-03-29T14:02:22;14.90;67.50
85614;DHT22;76041;50.924;3.932;2024-03-29T14:04:49;14.80;67.50
85614;DHT22;76041;50.924;3.932;2024-03-29T14:07:16;15.00;66.10
85614;DHT22;76041;50.924;3.932;2024-03-29T14:09:44;14.90;66.00
85614;DHT22;76041;50.924;3.932;2024-03-29T14:12:13;14.80;66.70
85614;DHT22;76041;50.924;3.932;2024-03-29T14:14:40;14.80;67.20
85614;DHT22;76041;50.924;3.932;2024-03-29T14:17:07;14.80;67.50
85614;DHT22;76041;50.924;3.932;2024-03-29T14:19:37;14.80;65.30
85614;DHT22;76041;50.924;3.932;2024-03-29T14:22:04;14.70;65.90
85614;DHT22;76041;50.924;3.932;2024-03-29T14:24:30;14.70;66.00
85614;DHT22;76041;50.924;3.932;2024-03-29T14:26:58;15.10;66.10
85614;DHT22;76041;50.924;3.932;2024-03-29T14:29:25;15.20;65.20
85614;DHT22;76041;50.924;3.932;2024-03-29T14:31:51;15.10;65.50
85614;DHT22;76041;50.924;3.932;2024-03-29T14:34:20;15.10;65.10
85614;DHT22;76041;50.924;3.932;2024-03-29T14:36:46;15.20;64.40
85614;DHT22;76041;50.924;3.932;2024-03-29T14:39:12;15.10;63.50
85614;DHT22;76041;50.924;3.932;2024-03-29T14:41:43;15.00;64.90
85614;DHT22;76041;50.924;3.932;2024-03-29T14:44:12;15.00;64.70
85614;DHT22;76041;50.924;3.932;2024-03-29T14:46:38;15.10;63.90
85614;DHT22;76041;50.924;3.932;2024-03-29T14:49:05;15.10;64.10
85614;DHT22;76041;50.924;3.932;2024-03-29T14:51:33;15.20;64.40
85614;DHT22;76041;50.924;3.932;2024-03-29T14:54:00;15.40;65.20
85614;DHT22;76041;50.924;3.932;2024-03-29T14:56:28;15.50;64.80
85614;DHT22;76041;50.924;3.932;2024-03-29T14:58:57;15.40;63.80
85614;DHT22;76041;50.924;3.932;2024-03-29T15:01:23;15.50;64.10
85614;DHT22;76041;50.924;3.932;2024-03-29T15:03:51;15.40;63.70
85614;DHT22;76041;50.924;3.932;2024-03-29T15:06:16;15.40;64.00
85614;DHT22;76041;50.924;3.932;2024-03-29T15:08:42;15.50;63.70
85614;DHT22;76041;50.924;3.932;2024-03-29T15:11:08;15.40;64.40
85614;DHT22;76041;50.924;3.932;2024-03-29T15:13:34;15.40;65.20
85614;DHT22;76041;50.924;3.932;2024-03-29T15:16:00;15.50;64.30
85614;DHT22;76041;50.924;3.932;2024-03-29T15:18:27;15.50;65.10
85614;DHT22;76041;50.924;3.932;2024-03-29T15:21:00;15.50;65.90
85614;DHT22;76041;50.924;3.932;2024-03-29T15:23:27;15.40;64.40
85614;DHT22;76041;50.924;3.932;2024-03-29T15:25:55;15.40;64.60
85614;DHT22;76041;50.924;3.932;2024-03-29T15:28:23;15.10;65.00
85614;DHT22;76041;50.924;3.932;2024-03-29T15:31:15;15.20;65.00
85614;DHT22;76041;50.924;3.932;2024-03-29T15:33:43;15.20;65.60
85614;DHT22;76041;50.924;3.932;2024-03-29T15:36:09;15.20;66.00
85614;DHT22;76041;50.924;3.932;2024-03-29T15:38:36;15.20;65.50